sensor_id;sensor_type;location;lat;lon;timestamp;P1;durP1;ratioP1;P2;durP2;ratioP2
13981;SDS011;7065;50.880;5.502;2023-12-04T00:01:12;11.90;;;8.57;;
13981;SDS011;7065;50.880;5.502;2023-12-04T00:03:38;13.52;;;8.45;;
13981;SDS011;7065;50.880;5.502;2023-12-04T00:06:04;13.75;;;8.82;;
13981;SDS011;7065;50.880;5.502;2023-12-04T00:08:30;11.73;;;8.35;;
13981;SDS011;7065;50.880;5.502;2023-12-04T00:10:57;13.35;;;7.05;;
13981;SDS011;7065;50.880;5.502;2023-12-04T00:13:24;11.32;;;7.43;;
13981;SDS011;7065;50.880;5.502;2023-12-04T00:15:51;12.45;;;8.63;;
13981;SDS011;7065;50.880;5.502;2023-12-04T00:18:17;11.07;;;8.18;;
13981;SDS011;7065;50.880;5.502;2023-12-04T00:20:42;12.15;;;8.35;;
13981;SDS011;7065;50.880;5.502;2023-12-04T00:23:08;12.23;;;8.15;;
13981;SDS011;7065;50.880;5.502;2023-12-04T00:25:34;10.70;;;8.15;;
13981;SDS011;7065;50.880;5.502;2023-12-04T00:27:59;12.30;;;8.93;;
13981;SDS011;7065;50.880;5.502;2023-12-04T00:30:25;13.13;;;8.98;;
13981;SDS011;7065;50.880;5.502;2023-12-04T00:32:50;11.27;;;7.97;;
13981;SDS011;7065;50.880;5.502;2023-12-04T00:35:16;10.52;;;8.02;;
13981;SDS011;7065;50.880;5.502;2023-12-04T00:37:42;12.00;;;8.30;;
13981;SDS011;7065;50.880;5.502;2023-12-04T00:40:09;11.88;;;8.05;;
13981;SDS011;7065;50.880;5.502;2023-12-04T00:42:38;12.35;;;7.90;;
13981;SDS011;7065;50.880;5.502;2023-12-04T00:45:06;12.15;;;8.40;;
13981;SDS011;7065;50.880;5.502;2023-12-04T00:47:35;12.23;;;8.65;;
13981;SDS011;7065;50.880;5.502;2023-12-04T00:50:00;11.48;;;8.48;;
13981;SDS011;7065;50.880;5.502;2023-12-04T00:52:27;12.00;;;7.70;;
13981;SDS011;7065;50.880;5.502;2023-12-04T00:54:52;11.98;;;8.30;;
13981;SDS011;7065;50.880;5.502;2023-12-04T00:57:18;11.70;;;7.55;;
13981;SDS011;7065;50.880;5.502;2023-12-04T00:59:44;11.82;;;8.80;;
13981;SDS011;7065;50.880;5.502;2023-12-04T01:02:10;12.57;;;8.30;;
13981;SDS011;7065;50.880;5.502;2023-12-04T01:04:35;11.48;;;7.93;;
13981;SDS011;7065;50.880;5.502;2023-12-04T01:07:04;11.48;;;8.18;;
13981;SDS011;7065;50.880;5.502;2023-12-04T01:09:30;11.80;;;8.48;;
13981;SDS011;7065;50.880;5.502;2023-12-04T01:11:56;10.68;;;7.25;;
13981;SDS011;7065;50.880;5.502;2023-12-04T01:14:21;10.80;;;7.15;;
13981;SDS011;7065;50.880;5.502;2023-12-04T01:16:47;11.02;;;7.22;;
13981;SDS011;7065;50.880;5.502;2023-12-04T01:19:13;11.48;;;7.28;;
13981;SDS011;7065;50.880;5.502;2023-12-04T01:21:39;10.73;;;7.15;;
13981;SDS011;7065;50.880;5.502;2023-12-04T01:24:05;11.20;;;6.88;;
13981;SDS011;7065;50.880;5.502;2023-12-04T01:26:30;10.20;;;6.57;;
13981;SDS011;7065;50.880;5.502;2023-12-04T01:28:56;10.98;;;7.30;;
13981;SDS011;7065;50.880;5.502;2023-12-04T01:31:22;10.52;;;6.60;;
13981;SDS011;7065;50.880;5.502;2023-12-04T01:33:48;11.23;;;7.10;;
13981;SDS011;7065;50.880;5.502;2023-12-04T01:36:13;10.90;;;6.85;;
13981;SDS011;7065;50.880;5.502;2023-12-04T01:38:39;11.45;;;8.00;;
13981;SDS011;7065;50.880;5.502;2023-12-04T01:41:05;11.18;;;8.38;;
13981;SDS011;7065;50.880;5.502;2023-12-04T01:43:31;11.15;;;8.43;;
13981;SDS011;7065;50.880;5.502;2023-12-04T01:45:57;12.45;;;8.32;;
13981;SDS011;7065;50.880;5.502;2023-12-04T01:48:24;11.05;;;7.95;;
13981;SDS011;7065;50.880;5.502;2023-12-04T01:50:51;12.98;;;9.07;;
13981;SDS011;7065;50.880;5.502;2023-12-04T01:53:17;12.45;;;8.13;;
13981;SDS011;7065;50.880;5.502;2023-12-04T01:55:43;10.23;;;6.75;;
13981;SDS011;7065;50.880;5.502;2023-12-04T01:58:10;12.60;;;7.55;;
13981;SDS011;7065;50.880;5.502;2023-12-04T02:00:37;10.93;;;7.10;;
13981;SDS011;7065;50.880;5.502;2023-12-04T02:03:03;10.73;;;7.32;;
13981;SDS011;7065;50.880;5.502;2023-12-04T02:05:29;11.60;;;6.93;;
13981;SDS011;7065;50.880;5.502;2023-12-04T02:07:56;10.43;;;7.47;;
13981;SDS011;7065;50.880;5.502;2023-12-04T02:10:22;11.63;;;7.55;;
13981;SDS011;7065;50.880;5.502;2023-12-04T02:12:49;11.27;;;7.65;;
13981;SDS011;7065;50.880;5.502;2023-12-04T02:15:15;10.52;;;6.88;;
13981;SDS011;7065;50.880;5.502;2023-12-04T02:17:42;11.68;;;8.55;;
13981;SDS011;7065;50.880;5.502;2023-12-04T02:20:09;10.45;;;7.50;;
13981;SDS011;7065;50.880;5.502;2023-12-04T02:22:37;10.73;;;7.53;;
13981;SDS011;7065;50.880;5.502;2023-12-04T02:25:03;10.95;;;7.22;;
13981;SDS011;7065;50.880;5.502;2023-12-04T02:27:49;10.90;;;7.30;;
13981;SDS011;7065;50.880;5.502;2023-12-04T02:30:16;10.57;;;7.30;;
13981;SDS011;7065;50.880;5.502;2023-12-04T02:32:45;10.25;;;6.80;;
13981;SDS011;7065;50.880;5.502;2023-12-04T02:35:13;11.10;;;7.88;;
13981;SDS011;7065;50.880;5.502;2023-12-04T02:37:44;11.43;;;7.72;;
13981;SDS011;7065;50.880;5.502;2023-12-04T02:40:12;12.57;;;8.80;;
13981;SDS011;7065;50.880;5.502;2023-12-04T02:42:39;13.32;;;8.38;;
13981;SDS011;7065;50.880;5.502;2023-12-04T02:45:05;12.60;;;9.23;;
13981;SDS011;7065;50.880;5.502;2023-12-04T02:47:31;12.52;;;8.82;;
13981;SDS011;7065;50.880;5.502;2023-12-04T02:49:57;13.40;;;8.85;;
13981;SDS011;7065;50.880;5.502;2023-12-04T02:52:24;12.35;;;7.38;;
13981;SDS011;7065;50.880;5.502;2023-12-04T02:54:49;12.88;;;8.00;;
13981;SDS011;7065;50.880;5.502;2023-12-04T02:57:15;12.68;;;7.85;;
13981;SDS011;7065;50.880;5.502;2023-12-04T02:59:41;11.77;;;7.50;;
13981;SDS011;7065;50.880;5.502;2023-12-04T03:02:07;10.77;;;9.07;;
13981;SDS011;7065;50.880;5.502;2023-12-04T03:04:33;12.80;;;8.52;;
13981;SDS011;7065;50.880;5.502;2023-12-04T03:07:00;11.40;;;7.57;;
13981;SDS011;7065;50.880;5.502;2023-12-04T03:09:26;11.70;;;7.80;;
13981;SDS011;7065;50.880;5.502;2023-12-04T03:11:51;9.82;;;7.60;;
13981;SDS011;7065;50.880;5.502;2023-12-04T03:14:17;10.35;;;6.97;;
13981;SDS011;7065;50.880;5.502;2023-12-04T03:16:43;10.05;;;7.07;;
13981;SDS011;7065;50.880;5.502;2023-12-04T03:19:09;12.82;;;8.30;;
13981;SDS011;7065;50.880;5.502;2023-12-04T03:21:35;11.45;;;8.50;;
13981;SDS011;7065;50.880;5.502;2023-12-04T03:24:00;11.43;;;8.40;;
13981;SDS011;7065;50.880;5.502;2023-12-04T03:26:26;11.50;;;7.65;;
13981;SDS011;7065;50.880;5.502;2023-12-04T03:28:53;11.27;;;8.52;;
13981;SDS011;7065;50.880;5.502;2023-12-04T03:31:19;12.32;;;8.73;;
13981;SDS011;7065;50.880;5.502;2023-12-04T03:33:46;11.20;;;8.38;;
13981;SDS011;7065;50.880;5.502;2023-12-04T03:36:11;11.07;;;8.55;;
13981;SDS011;7065;50.880;5.502;2023-12-04T03:38:37;11.35;;;8.95;;
13981;SDS011;7065;50.880;5.502;2023-12-04T03:41:03;11.88;;;8.40;;
13981;SDS011;7065;50.880;5.502;2023-12-04T03:43:29;9.98;;;8.38;;
13981;SDS011;7065;50.880;5.502;2023-12-04T03:45:54;12.52;;;8.90;;
13981;SDS011;7065;50.880;5.502;2023-12-04T03:48:20;11.13;;;8.05;;
13981;SDS011;7065;50.880;5.502;2023-12-04T03:50:45;10.80;;;8.18;;
13981;SDS011;7065;50.880;5.502;2023-12-04T03:53:11;10.88;;;7.38;;
13981;SDS011;7065;50.880;5.502;2023-12-04T03:55:37;9.88;;;7.47;;
13981;SDS011;7065;50.880;5.502;2023-12-04T03:58:03;11.43;;;8.98;;
13981;SDS011;7065;50.880;5.502;2023-12-04T04:00:29;9.02;;;7.60;;
13981;SDS011;7065;50.880;5.502;2023-12-04T04:02:54;10.70;;;9.18;;
13981;SDS011;7065;50.880;5.502;2023-12-04T04:05:20;11.02;;;8.23;;
13981;SDS011;7065;50.880;5.502;2023-12-04T04:07:46;9.95;;;8.15;;
13981;SDS011;7065;50.880;5.502;2023-12-04T04:10:12;10.90;;;7.97;;
13981;SDS011;7065;50.880;5.502;2023-12-04T04:12:38;10.85;;;8.30;;
13981;SDS011;7065;50.880;5.502;2023-12-04T04:15:04;9.63;;;8.45;;
13981;SDS011;7065;50.880;5.502;2023-12-04T04:17:30;10.35;;;8.20;;
13981;SDS011;7065;50.880;5.502;2023-12-04T04:19:58;10.57;;;8.30;;
13981;SDS011;7065;50.880;5.502;2023-12-04T04:22:24;10.95;;;8.13;;
13981;SDS011;7065;50.880;5.502;2023-12-04T04:24:49;10.05;;;7.93;;
13981;SDS011;7065;50.880;5.502;2023-12-04T04:27:15;9.23;;;7.50;;
13981;SDS011;7065;50.880;5.502;2023-12-04T04:29:41;10.48;;;7.95;;
13981;SDS011;7065;50.880;5.502;2023-12-04T04:32:06;9.82;;;7.07;;
13981;SDS011;7065;50.880;5.502;2023-12-04T04:34:32;8.63;;;6.93;;
13981;SDS011;7065;50.880;5.502;2023-12-04T04:36:58;7.88;;;6.07;;
13981;SDS011;7065;50.880;5.502;2023-12-04T04:39:24;9.07;;;6.15;;
13981;SDS011;7065;50.880;5.502;2023-12-04T04:41:50;7.20;;;5.45;;
13981;SDS011;7065;50.880;5.502;2023-12-04T04:44:15;8.23;;;5.55;;
13981;SDS011;7065;50.880;5.502;2023-12-04T04:46:41;8.23;;;5.82;;
13981;SDS011;7065;50.880;5.502;2023-12-04T04:49:07;6.57;;;4.93;;
13981;SDS011;7065;50.880;5.502;2023-12-04T04:51:33;7.18;;;5.22;;
13981;SDS011;7065;50.880;5.502;2023-12-04T04:54:02;7.35;;;5.50;;
13981;SDS011;7065;50.880;5.502;2023-12-04T04:56:28;6.65;;;5.15;;
13981;SDS011;7065;50.880;5.502;2023-12-04T04:58:54;7.28;;;5.40;;
13981;SDS011;7065;50.880;5.502;2023-12-04T05:01:20;9.48;;;5.30;;
13981;SDS011;7065;50.880;5.502;2023-12-04T05:03:46;6.80;;;5.13;;
13981;SDS011;7065;50.880;5.502;2023-12-04T05:06:12;7.38;;;5.70;;
13981;SDS011;7065;50.880;5.502;2023-12-04T05:08:37;5.90;;;4.88;;
13981;SDS011;7065;50.880;5.502;2023-12-04T05:11:03;6.40;;;5.03;;
13981;SDS011;7065;50.880;5.502;2023-12-04T05:13:29;6.32;;;5.10;;
13981;SDS011;7065;50.880;5.502;2023-12-04T05:15:55;5.90;;;4.85;;
13981;SDS011;7065;50.880;5.502;2023-12-04T05:18:21;6.13;;;4.65;;
13981;SDS011;7065;50.880;5.502;2023-12-04T05:20:47;6.28;;;4.60;;
13981;SDS011;7065;50.880;5.502;2023-12-04T05:23:12;7.57;;;4.95;;
13981;SDS011;7065;50.880;5.502;2023-12-04T05:25:38;5.78;;;4.78;;
13981;SDS011;7065;50.880;5.502;2023-12-04T05:28:04;8.35;;;5.20;;
13981;SDS011;7065;50.880;5.502;2023-12-04T05:30:30;6.72;;;5.30;;
13981;SDS011;7065;50.880;5.502;2023-12-04T05:32:56;6.57;;;5.45;;
13981;SDS011;7065;50.880;5.502;2023-12-04T05:35:22;5.75;;;4.85;;
13981;SDS011;7065;50.880;5.502;2023-12-04T05:37:47;5.18;;;4.15;;
13981;SDS011;7065;50.880;5.502;2023-12-04T05:40:13;6.47;;;4.68;;
13981;SDS011;7065;50.880;5.502;2023-12-04T05:42:39;5.32;;;4.60;;
13981;SDS011;7065;50.880;5.502;2023-12-04T05:45:05;5.68;;;4.57;;
13981;SDS011;7065;50.880;5.502;2023-12-04T05:47:32;5.65;;;4.75;;
13981;SDS011;7065;50.880;5.502;2023-12-04T05:49:58;5.20;;;4.70;;
13981;SDS011;7065;50.880;5.502;2023-12-04T05:52:24;5.75;;;4.20;;
13981;SDS011;7065;50.880;5.502;2023-12-04T05:54:49;5.22;;;3.67;;
13981;SDS011;7065;50.880;5.502;2023-12-04T05:57:15;5.82;;;4.38;;
13981;SDS011;7065;50.880;5.502;2023-12-04T05:59:42;5.70;;;3.95;;
13981;SDS011;7065;50.880;5.502;2023-12-04T06:02:08;5.07;;;4.28;;
13981;SDS011;7065;50.880;5.502;2023-12-04T06:04:34;5.43;;;3.90;;
13981;SDS011;7065;50.880;5.502;2023-12-04T06:07:00;5.60;;;4.15;;
13981;SDS011;7065;50.880;5.502;2023-12-04T06:09:25;7.25;;;4.75;;
13981;SDS011;7065;50.880;5.502;2023-12-04T06:11:51;5.43;;;4.13;;
13981;SDS011;7065;50.880;5.502;2023-12-04T06:14:17;5.43;;;4.53;;
13981;SDS011;7065;50.880;5.502;2023-12-04T06:16:42;6.72;;;5.07;;
13981;SDS011;7065;50.880;5.502;2023-12-04T06:19:08;7.25;;;4.88;;
13981;SDS011;7065;50.880;5.502;2023-12-04T06:21:34;5.85;;;4.75;;
13981;SDS011;7065;50.880;5.502;2023-12-04T06:24:00;5.25;;;4.75;;
13981;SDS011;7065;50.880;5.502;2023-12-04T06:26:25;5.63;;;4.55;;
13981;SDS011;7065;50.880;5.502;2023-12-04T06:28:51;6.05;;;5.10;;
13981;SDS011;7065;50.880;5.502;2023-12-04T06:31:17;5.63;;;4.35;;
13981;SDS011;7065;50.880;5.502;2023-12-04T06:33:44;5.07;;;3.63;;
13981;SDS011;7065;50.880;5.502;2023-12-04T06:36:10;7.05;;;4.10;;
13981;SDS011;7065;50.880;5.502;2023-12-04T06:38:39;4.53;;;4.00;;
13981;SDS011;7065;50.880;5.502;2023-12-04T06:41:09;3.55;;;3.03;;
13981;SDS011;7065;50.880;5.502;2023-12-04T06:43:39;6.43;;;4.22;;
13981;SDS011;7065;50.880;5.502;2023-12-04T06:46:08;5.20;;;3.90;;
13981;SDS011;7065;50.880;5.502;2023-12-04T06:48:39;5.88;;;3.83;;
13981;SDS011;7065;50.880;5.502;2023-12-04T06:51:09;4.30;;;3.50;;
13981;SDS011;7065;50.880;5.502;2023-12-04T06:53:38;4.70;;;3.40;;
13981;SDS011;7065;50.880;5.502;2023-12-04T06:56:06;4.00;;;3.13;;
13981;SDS011;7065;50.880;5.502;2023-12-04T06:58:35;3.58;;;3.00;;
13981;SDS011;7065;50.880;5.502;2023-12-04T07:01:00;4.47;;;3.50;;
13981;SDS011;7065;50.880;5.502;2023-12-04T07:03:26;4.63;;;3.15;;
13981;SDS011;7065;50.880;5.502;2023-12-04T07:05:52;6.25;;;3.75;;
13981;SDS011;7065;50.880;5.502;2023-12-04T07:08:18;3.08;;;2.50;;
13981;SDS011;7065;50.880;5.502;2023-12-04T07:10:43;3.63;;;2.95;;
13981;SDS011;7065;50.880;5.502;2023-12-04T07:13:09;4.00;;;3.03;;
13981;SDS011;7065;50.880;5.502;2023-12-04T07:15:35;7.25;;;3.42;;
13981;SDS011;7065;50.880;5.502;2023-12-04T07:18:00;3.83;;;2.90;;
13981;SDS011;7065;50.880;5.502;2023-12-04T07:20:26;3.10;;;2.80;;
13981;SDS011;7065;50.880;5.502;2023-12-04T07:22:52;3.22;;;2.80;;
13981;SDS011;7065;50.880;5.502;2023-12-04T07:25:17;4.13;;;2.72;;
13981;SDS011;7065;50.880;5.502;2023-12-04T07:27:43;4.60;;;3.03;;
13981;SDS011;7065;50.880;5.502;2023-12-04T07:30:09;3.63;;;2.90;;
13981;SDS011;7065;50.880;5.502;2023-12-04T07:32:36;5.88;;;2.95;;
13981;SDS011;7065;50.880;5.502;2023-12-04T07:35:03;4.47;;;2.90;;
13981;SDS011;7065;50.880;5.502;2023-12-04T07:37:29;3.22;;;2.90;;
13981;SDS011;7065;50.880;5.502;2023-12-04T07:39:57;3.88;;;3.15;;
13981;SDS011;7065;50.880;5.502;2023-12-04T07:42:26;3.28;;;2.97;;
13981;SDS011;7065;50.880;5.502;2023-12-04T07:44:55;5.40;;;3.05;;
13981;SDS011;7065;50.880;5.502;2023-12-04T07:47:24;3.70;;;3.00;;
13981;SDS011;7065;50.880;5.502;2023-12-04T07:49:51;5.18;;;3.10;;
13981;SDS011;7065;50.880;5.502;2023-12-04T07:52:17;3.70;;;3.30;;
13981;SDS011;7065;50.880;5.502;2023-12-04T07:54:43;4.13;;;3.50;;
13981;SDS011;7065;50.880;5.502;2023-12-04T07:57:09;13.48;;;9.13;;
13981;SDS011;7065;50.880;5.502;2023-12-04T07:59:34;11.32;;;7.10;;
13981;SDS011;7065;50.880;5.502;2023-12-04T08:02:00;12.77;;;9.30;;
13981;SDS011;7065;50.880;5.502;2023-12-04T08:04:26;5.80;;;5.10;;
13981;SDS011;7065;50.880;5.502;2023-12-04T08:06:52;4.60;;;3.50;;
13981;SDS011;7065;50.880;5.502;2023-12-04T08:09:18;5.05;;;4.53;;
13981;SDS011;7065;50.880;5.502;2023-12-04T08:11:44;7.47;;;6.20;;
13981;SDS011;7065;50.880;5.502;2023-12-04T08:14:10;11.75;;;9.88;;
13981;SDS011;7065;50.880;5.502;2023-12-04T08:16:36;6.40;;;4.40;;
13981;SDS011;7065;50.880;5.502;2023-12-04T08:19:01;4.30;;;3.72;;
13981;SDS011;7065;50.880;5.502;2023-12-04T08:21:27;4.35;;;3.95;;
13981;SDS011;7065;50.880;5.502;2023-12-04T08:23:53;6.68;;;4.90;;
13981;SDS011;7065;50.880;5.502;2023-12-04T08:26:22;8.55;;;4.97;;
13981;SDS011;7065;50.880;5.502;2023-12-04T08:28:49;5.50;;;3.97;;
13981;SDS011;7065;50.880;5.502;2023-12-04T08:31:15;6.38;;;4.00;;
13981;SDS011;7065;50.880;5.502;2023-12-04T08:33:41;5.18;;;3.45;;
13981;SDS011;7065;50.880;5.502;2023-12-04T08:36:07;4.38;;;3.58;;
13981;SDS011;7065;50.880;5.502;2023-12-04T08:38:34;4.28;;;3.50;;
13981;SDS011;7065;50.880;5.502;2023-12-04T08:40:59;5.80;;;3.97;;
13981;SDS011;7065;50.880;5.502;2023-12-04T08:43:25;4.07;;;3.55;;
13981;SDS011;7065;50.880;5.502;2023-12-04T08:45:51;4.65;;;4.10;;
13981;SDS011;7065;50.880;5.502;2023-12-04T08:48:16;6.03;;;3.70;;
13981;SDS011;7065;50.880;5.502;2023-12-04T08:50:42;4.07;;;3.40;;
13981;SDS011;7065;50.880;5.502;2023-12-04T08:53:08;5.32;;;3.70;;
13981;SDS011;7065;50.880;5.502;2023-12-04T08:55:34;5.63;;;4.07;;
13981;SDS011;7065;50.880;5.502;2023-12-04T08:57:59;5.70;;;4.25;;
13981;SDS011;7065;50.880;5.502;2023-12-04T09:00:26;4.28;;;3.80;;
13981;SDS011;7065;50.880;5.502;2023-12-04T09:02:52;4.40;;;3.72;;
13981;SDS011;7065;50.880;5.502;2023-12-04T09:05:18;5.00;;;3.83;;
13981;SDS011;7065;50.880;5.502;2023-12-04T09:07:44;4.18;;;3.78;;
13981;SDS011;7065;50.880;5.502;2023-12-04T09:10:09;5.15;;;3.80;;
13981;SDS011;7065;50.880;5.502;2023-12-04T09:12:35;6.22;;;4.20;;
13981;SDS011;7065;50.880;5.502;2023-12-04T09:15:03;6.22;;;4.75;;
13981;SDS011;7065;50.880;5.502;2023-12-04T09:17:29;5.75;;;4.03;;
13981;SDS011;7065;50.880;5.502;2023-12-04T09:19:55;7.93;;;4.40;;
13981;SDS011;7065;50.880;5.502;2023-12-04T09:22:22;5.20;;;3.75;;
13981;SDS011;7065;50.880;5.502;2023-12-04T09:24:48;5.55;;;3.92;;
13981;SDS011;7065;50.880;5.502;2023-12-04T09:27:15;4.22;;;3.65;;
13981;SDS011;7065;50.880;5.502;2023-12-04T09:29:42;7.53;;;4.28;;
13981;SDS011;7065;50.880;5.502;2023-12-04T09:32:07;4.97;;;3.80;;
13981;SDS011;7065;50.880;5.502;2023-12-04T09:34:34;4.57;;;3.70;;
13981;SDS011;7065;50.880;5.502;2023-12-04T09:37:00;4.22;;;3.75;;
13981;SDS011;7065;50.880;5.502;2023-12-04T09:39:27;4.63;;;4.00;;
13981;SDS011;7065;50.880;5.502;2023-12-04T09:41:53;4.88;;;4.20;;
13981;SDS011;7065;50.880;5.502;2023-12-04T09:44:20;4.93;;;4.30;;
13981;SDS011;7065;50.880;5.502;2023-12-04T09:46:49;8.30;;;5.18;;
13981;SDS011;7065;50.880;5.502;2023-12-04T09:49:16;5.00;;;4.35;;
13981;SDS011;7065;50.880;5.502;2023-12-04T09:51:43;5.88;;;4.65;;
13981;SDS011;7065;50.880;5.502;2023-12-04T09:54:09;4.80;;;3.90;;
13981;SDS011;7065;50.880;5.502;2023-12-04T09:56:35;5.80;;;4.53;;
13981;SDS011;7065;50.880;5.502;2023-12-04T09:59:02;6.72;;;5.00;;
13981;SDS011;7065;50.880;5.502;2023-12-04T10:01:31;6.25;;;4.78;;
13981;SDS011;7065;50.880;5.502;2023-12-04T10:03:58;5.68;;;4.70;;
13981;SDS011;7065;50.880;5.502;2023-12-04T10:06:27;5.25;;;4.68;;
13981;SDS011;7065;50.880;5.502;2023-12-04T10:08:56;5.45;;;4.75;;
13981;SDS011;7065;50.880;5.502;2023-12-04T10:11:24;6.28;;;4.50;;
13981;SDS011;7065;50.880;5.502;2023-12-04T10:13:51;5.93;;;4.85;;
13981;SDS011;7065;50.880;5.502;2023-12-04T10:21:58;9.43;;;5.03;;
13981;SDS011;7065;50.880;5.502;2023-12-04T10:26:57;6.22;;;5.22;;
13981;SDS011;7065;50.880;5.502;2023-12-04T10:29:23;7.07;;;5.03;;
13981;SDS011;7065;50.880;5.502;2023-12-04T10:31:53;6.65;;;5.25;;
13981;SDS011;7065;50.880;5.502;2023-12-04T10:34:21;7.43;;;4.90;;
13981;SDS011;7065;50.880;5.502;2023-12-04T10:36:50;6.47;;;5.13;;
13981;SDS011;7065;50.880;5.502;2023-12-04T10:39:17;6.50;;;5.18;;
13981;SDS011;7065;50.880;5.502;2023-12-04T10:41:43;7.47;;;5.15;;
13981;SDS011;7065;50.880;5.502;2023-12-04T10:44:09;6.32;;;5.38;;
13981;SDS011;7065;50.880;5.502;2023-12-04T10:46:40;6.45;;;5.80;;
13981;SDS011;7065;50.880;5.502;2023-12-04T10:49:08;5.63;;;5.10;;
13981;SDS011;7065;50.880;5.502;2023-12-04T10:51:34;6.95;;;5.75;;
13981;SDS011;7065;50.880;5.502;2023-12-04T10:54:01;6.78;;;5.45;;
13981;SDS011;7065;50.880;5.502;2023-12-04T10:56:31;7.35;;;6.10;;
13981;SDS011;7065;50.880;5.502;2023-12-04T10:59:03;8.18;;;6.03;;
13981;SDS011;7065;50.880;5.502;2023-12-04T11:01:37;7.93;;;6.38;;
13981;SDS011;7065;50.880;5.502;2023-12-04T11:04:05;8.90;;;6.45;;
13981;SDS011;7065;50.880;5.502;2023-12-04T11:06:32;7.25;;;5.90;;
13981;SDS011;7065;50.880;5.502;2023-12-04T11:09:01;8.00;;;7.20;;
13981;SDS011;7065;50.880;5.502;2023-12-04T11:11:30;10.13;;;6.82;;
13981;SDS011;7065;50.880;5.502;2023-12-04T11:14:00;9.25;;;6.22;;
13981;SDS011;7065;50.880;5.502;2023-12-04T11:19:47;8.32;;;5.95;;
13981;SDS011;7065;50.880;5.502;2023-12-04T11:22:08;7.65;;;6.15;;
13981;SDS011;7065;50.880;5.502;2023-12-04T11:24:35;8.25;;;6.88;;
13981;SDS011;7065;50.880;5.502;2023-12-04T11:27:02;8.95;;;6.53;;
13981;SDS011;7065;50.880;5.502;2023-12-04T11:29:29;10.32;;;6.30;;
13981;SDS011;7065;50.880;5.502;2023-12-04T11:31:57;8.65;;;7.13;;
13981;SDS011;7065;50.880;5.502;2023-12-04T11:34:23;9.55;;;7.10;;
13981;SDS011;7065;50.880;5.502;2023-12-04T11:36:50;8.35;;;7.28;;
13981;SDS011;7065;50.880;5.502;2023-12-04T11:39:18;8.95;;;6.75;;
13981;SDS011;7065;50.880;5.502;2023-12-04T11:41:44;8.25;;;7.10;;
13981;SDS011;7065;50.880;5.502;2023-12-04T11:44:14;7.07;;;6.38;;
13981;SDS011;7065;50.880;5.502;2023-12-04T11:46:41;7.43;;;6.28;;
13981;SDS011;7065;50.880;5.502;2023-12-04T11:49:26;7.15;;;5.85;;
13981;SDS011;7065;50.880;5.502;2023-12-04T11:51:56;6.47;;;5.75;;
13981;SDS011;7065;50.880;5.502;2023-12-04T11:54:25;7.68;;;5.65;;
13981;SDS011;7065;50.880;5.502;2023-12-04T11:57:10;8.13;;;5.75;;
13981;SDS011;7065;50.880;5.502;2023-12-04T11:59:46;6.63;;;5.88;;
13981;SDS011;7065;50.880;5.502;2023-12-04T12:02:13;8.85;;;7.95;;
13981;SDS011;7065;50.880;5.502;2023-12-04T12:04:41;6.20;;;5.60;;
13981;SDS011;7065;50.880;5.502;2023-12-04T12:07:07;6.47;;;5.85;;
13981;SDS011;7065;50.880;5.502;2023-12-04T12:09:33;7.13;;;6.40;;
13981;SDS011;7065;50.880;5.502;2023-12-04T12:11:59;6.68;;;5.68;;
13981;SDS011;7065;50.880;5.502;2023-12-04T12:14:29;6.55;;;5.90;;
13981;SDS011;7065;50.880;5.502;2023-12-04T12:16:55;6.05;;;5.45;;
13981;SDS011;7065;50.880;5.502;2023-12-04T12:19:24;6.78;;;5.53;;
13981;SDS011;7065;50.880;5.502;2023-12-04T12:21:50;6.65;;;5.20;;
13981;SDS011;7065;50.880;5.502;2023-12-04T12:24:17;7.13;;;5.13;;
13981;SDS011;7065;50.880;5.502;2023-12-04T12:26:43;7.32;;;5.72;;
13981;SDS011;7065;50.880;5.502;2023-12-04T12:29:10;6.20;;;5.60;;
13981;SDS011;7065;50.880;5.502;2023-12-04T12:31:36;5.97;;;5.20;;
13981;SDS011;7065;50.880;5.502;2023-12-04T12:34:02;8.73;;;5.65;;
13981;SDS011;7065;50.880;5.502;2023-12-04T12:36:28;7.70;;;5.63;;
13981;SDS011;7065;50.880;5.502;2023-12-04T12:38:54;6.75;;;5.03;;
13981;SDS011;7065;50.880;5.502;2023-12-04T12:41:21;6.18;;;5.40;;
13981;SDS011;7065;50.880;5.502;2023-12-04T12:43:46;7.55;;;5.78;;
13981;SDS011;7065;50.880;5.502;2023-12-04T12:46:17;6.82;;;5.25;;
13981;SDS011;7065;50.880;5.502;2023-12-04T12:48:43;5.43;;;4.90;;
13981;SDS011;7065;50.880;5.502;2023-12-04T12:51:10;7.45;;;5.20;;
13981;SDS011;7065;50.880;5.502;2023-12-04T12:53:36;5.38;;;4.85;;
13981;SDS011;7065;50.880;5.502;2023-12-04T12:56:02;5.22;;;4.72;;
13981;SDS011;7065;50.880;5.502;2023-12-04T12:58:28;5.18;;;4.68;;
13981;SDS011;7065;50.880;5.502;2023-12-04T13:00:54;5.35;;;4.45;;
13981;SDS011;7065;50.880;5.502;2023-12-04T13:03:21;5.00;;;4.50;;
13981;SDS011;7065;50.880;5.502;2023-12-04T13:05:47;5.47;;;4.95;;
13981;SDS011;7065;50.880;5.502;2023-12-04T13:08:13;5.72;;;4.68;;
13981;SDS011;7065;50.880;5.502;2023-12-04T13:10:40;4.75;;;3.90;;
13981;SDS011;7065;50.880;5.502;2023-12-04T13:13:13;4.30;;;3.90;;
13981;SDS011;7065;50.880;5.502;2023-12-04T13:15:39;4.95;;;3.70;;
13981;SDS011;7065;50.880;5.502;2023-12-04T13:18:06;3.95;;;3.55;;
13981;SDS011;7065;50.880;5.502;2023-12-04T13:20:32;4.10;;;3.60;;
13981;SDS011;7065;50.880;5.502;2023-12-04T13:22:59;4.00;;;3.70;;
13981;SDS011;7065;50.880;5.502;2023-12-04T13:25:25;4.00;;;3.67;;
13981;SDS011;7065;50.880;5.502;2023-12-04T13:27:53;4.18;;;3.78;;
13981;SDS011;7065;50.880;5.502;2023-12-04T13:30:19;4.50;;;4.10;;
13981;SDS011;7065;50.880;5.502;2023-12-04T13:32:45;4.30;;;3.95;;
13981;SDS011;7065;50.880;5.502;2023-12-04T13:35:11;4.57;;;4.13;;
13981;SDS011;7065;50.880;5.502;2023-12-04T13:37:36;4.30;;;4.00;;
13981;SDS011;7065;50.880;5.502;2023-12-04T13:40:04;4.50;;;4.10;;
13981;SDS011;7065;50.880;5.502;2023-12-04T13:42:38;4.38;;;3.97;;
13981;SDS011;7065;50.880;5.502;2023-12-04T13:45:22;4.50;;;4.10;;
13981;SDS011;7065;50.880;5.502;2023-12-04T13:47:50;4.82;;;3.80;;
13981;SDS011;7065;50.880;5.502;2023-12-04T13:50:18;5.00;;;3.75;;
13981;SDS011;7065;50.880;5.502;2023-12-04T13:52:43;5.55;;;4.25;;
13981;SDS011;7065;50.880;5.502;2023-12-04T13:55:09;5.85;;;4.70;;
13981;SDS011;7065;50.880;5.502;2023-12-04T13:57:46;4.88;;;4.45;;
13981;SDS011;7065;50.880;5.502;2023-12-04T14:00:34;5.57;;;4.53;;
13981;SDS011;7065;50.880;5.502;2023-12-04T14:03:01;5.15;;;4.65;;
13981;SDS011;7065;50.880;5.502;2023-12-04T14:05:30;4.45;;;4.05;;
13981;SDS011;7065;50.880;5.502;2023-12-04T14:07:56;4.60;;;4.20;;
13981;SDS011;7065;50.880;5.502;2023-12-04T14:10:23;4.85;;;4.45;;
13981;SDS011;7065;50.880;5.502;2023-12-04T14:12:51;4.38;;;4.07;;
13981;SDS011;7065;50.880;5.502;2023-12-04T14:15:16;4.45;;;4.05;;
13981;SDS011;7065;50.880;5.502;2023-12-04T14:17:42;4.60;;;4.20;;
13981;SDS011;7065;50.880;5.502;2023-12-04T14:20:08;4.47;;;4.15;;
13981;SDS011;7065;50.880;5.502;2023-12-04T14:22:38;4.78;;;4.38;;
13981;SDS011;7065;50.880;5.502;2023-12-04T14:25:07;5.53;;;5.03;;
13981;SDS011;7065;50.880;5.502;2023-12-04T14:27:33;5.10;;;4.68;;
13981;SDS011;7065;50.880;5.502;2023-12-04T14:30:00;5.40;;;4.50;;
13981;SDS011;7065;50.880;5.502;2023-12-04T14:32:27;5.50;;;5.00;;
13981;SDS011;7065;50.880;5.502;2023-12-04T14:34:52;5.38;;;4.88;;
13981;SDS011;7065;50.880;5.502;2023-12-04T14:37:19;7.10;;;6.43;;
13981;SDS011;7065;50.880;5.502;2023-12-04T14:39:45;7.72;;;6.93;;
13981;SDS011;7065;50.880;5.502;2023-12-04T14:42:11;7.32;;;6.63;;
13981;SDS011;7065;50.880;5.502;2023-12-04T14:44:37;7.57;;;6.88;;
13981;SDS011;7065;50.880;5.502;2023-12-04T14:47:03;7.03;;;6.40;;
13981;SDS011;7065;50.880;5.502;2023-12-04T14:49:29;6.60;;;6.00;;
13981;SDS011;7065;50.880;5.502;2023-12-04T14:51:56;7.55;;;5.90;;
13981;SDS011;7065;50.880;5.502;2023-12-04T14:54:22;6.07;;;5.47;;
13981;SDS011;7065;50.880;5.502;2023-12-04T14:57:01;5.30;;;4.80;;
13981;SDS011;7065;50.880;5.502;2023-12-04T14:59:50;5.70;;;5.20;;
13981;SDS011;7065;50.880;5.502;2023-12-04T15:02:34;5.97;;;5.43;;
13981;SDS011;7065;50.880;5.502;2023-12-04T15:05:19;5.40;;;4.90;;
13981;SDS011;7065;50.880;5.502;2023-12-04T15:08:17;5.40;;;5.00;;